Time;durP1;ratioP1;P1;durP2;ratioP2;P2;SDS_P1;SDS_P2;PMS_P1;PMS_P2;Temp;Humidity;BMP_temperature;BMP_pressure;BME280_temperature;BME280_humidity;BME280_pressure;Samples;Min_cycle;Max_cycle;Signal;HPM_P1;HPM_P2
2022/06/18 00:01:33;;;;;;;1.70;1.60;;;;;;;;;;4992745;28;20196;-76
2022/06/18 00:04:04;;;;;;;2.40;1.80;;;;;;;;;;5005844;28;20202;-76
2022/06/18 00:06:31;;;;;;;2.70;1.93;;;;;;;;;;4993714;28;20214;-76
2022/06/18 00:08:57;;;;;;;2.30;2.10;;;;;;;;;;4994119;28;20203;-76
2022/06/18 00:14:09;;;;;;;2.90;1.80;;;;;;;;;;5008747;28;20198;-76
2022/06/18 00:16:36;;;;;;;2.80;1.90;;;;;;;;;;4995531;28;20176;-76
2022/06/18 00:19:02;;;;;;;2.33;1.90;;;;;;;;;;5012940;28;20191;-76
2022/06/18 00:21:29;;;;;;;2.43;2.10;;;;;;;;;;4996095;28;20196;-76
2022/06/18 00:23:55;;;;;;;2.60;1.80;;;;;;;;;;4993034;28;20187;-77
2022/06/18 00:26:21;;;;;;;3.40;2.20;;;;;;;;;;4994832;28;20176;-77
2022/06/18 00:28:48;;;;;;;4.07;2.37;;;;;;;;;;4992975;28;20204;-76
2022/06/18 00:31:15;;;;;;;3.23;2.13;;;;;;;;;;4986370;28;20266;-76
2022/06/18 00:33:41;;;;;;;1.97;1.87;;;;;;;;;;4990859;28;20661;-76
2022/06/18 00:36:16;;;;;;;2.13;1.93;;;;;;;;;;5019135;28;20584;-76
2022/06/18 00:38:44;;;;;;;2.30;2.10;;;;;;;;;;5006155;28;20238;-76
2022/06/18 00:41:15;;;;;;;2.43;2.17;;;;;;;;;;4975558;28;20627;-76
2022/06/18 00:43:48;;;;;;;1.90;1.80;;;;;;;;;;4993138;28;20180;-76
2022/06/18 00:46:26;;;;;;;2.03;1.90;;;;;;;;;;4993239;28;20257;-76
2022/06/18 00:49:00;;;;;;;3.17;2.07;;;;;;;;;;4991053;28;20198;-76
2022/06/18 00:51:32;;;;;;;2.30;2.10;;;;;;;;;;4993996;28;20226;-76
2022/06/18 00:54:25;;;;;;;3.37;2.23;;;;;;;;;;4998669;28;20534;-76
2022/06/18 00:56:57;;;;;;;3.13;2.47;;;;;;;;;;4989281;28;20588;-76
2022/06/18 00:59:43;;;;;;;3.40;2.03;;;;;;;;;;4991495;28;20188;-76
2022/06/18 01:02:17;;;;;;;3.00;2.10;;;;;;;;;;5009725;28;20183;-76
2022/06/18 01:04:44;;;;;;;2.17;1.97;;;;;;;;;;5005168;28;20229;-76
2022/06/18 01:07:21;;;;;;;2.87;2.10;;;;;;;;;;4977668;28;20214;-76
2022/06/18 01:09:48;;;;;;;2.47;2.00;;;;;;;;;;4992198;28;20184;-76
2022/06/18 01:12:14;;;;;;;2.10;1.90;;;;;;;;;;4990521;28;20180;-76
2022/06/18 01:14:42;;;;;;;2.97;1.93;;;;;;;;;;5008148;28;20177;-76
2022/06/18 01:17:08;;;;;;;3.47;2.07;;;;;;;;;;5006826;28;20241;-76
2022/06/18 01:19:39;;;;;;;3.37;2.07;;;;;;;;;;5007152;28;20563;-77
2022/06/18 01:22:21;;;;;;;2.10;1.90;;;;;;;;;;5006506;28;20200;-76
2022/06/18 01:24:48;;;;;;;2.30;2.10;;;;;;;;;;4975139;28;20522;-76
2022/06/18 01:27:14;;;;;;;2.20;1.83;;;;;;;;;;5003064;28;20698;-76
2022/06/18 01:29:40;;;;;;;2.10;1.90;;;;;;;;;;5000240;28;20184;-76
2022/06/18 01:32:08;;;;;;;2.83;2.00;;;;;;;;;;4986281;28;20657;-76
2022/06/18 01:34:36;;;;;;;2.10;1.90;;;;;;;;;;5004676;28;20184;-76
2022/06/18 01:37:03;;;;;;;2.10;1.90;;;;;;;;;;4989732;28;20302;-76
2022/06/18 01:39:32;;;;;;;2.60;1.90;;;;;;;;;;4985876;28;20190;-76
2022/06/18 01:42:03;;;;;;;3.23;2.10;;;;;;;;;;5000302;28;20546;-76
2022/06/18 01:44:38;;;;;;;3.50;2.00;;;;;;;;;;4990615;28;20184;-76
2022/06/18 01:47:15;;;;;;;3.07;2.13;;;;;;;;;;4996811;28;20214;-76
2022/06/18 01:49:46;;;;;;;2.63;1.97;;;;;;;;;;5009130;28;20191;-76
2022/06/18 01:52:15;;;;;;;4.60;2.00;;;;;;;;;;5006214;28;20683;-76
2022/06/18 01:54:45;;;;;;;3.53;2.33;;;;;;;;;;4991123;28;20215;-76
2022/06/18 01:57:13;;;;;;;2.87;1.93;;;;;;;;;;5006600;28;20212;-76
2022/06/18 01:59:43;;;;;;;2.70;1.83;;;;;;;;;;4997129;28;20188;-76
2022/06/18 02:02:10;;;;;;;2.10;1.90;;;;;;;;;;4974378;28;20259;-76
2022/06/18 02:04:37;;;;;;;3.03;2.30;;;;;;;;;;4990138;28;20560;-77
2022/06/18 02:07:05;;;;;;;2.13;1.80;;;;;;;;;;5007040;28;20192;-76
2022/06/18 02:09:34;;;;;;;2.90;2.40;;;;;;;;;;4991450;28;20184;-76
2022/06/18 02:12:05;;;;;;;2.80;2.03;;;;;;;;;;4988251;28;20625;-77
2022/06/18 02:14:35;;;;;;;2.87;1.90;;;;;;;;;;4974534;28;20671;-76
2022/06/18 02:17:03;;;;;;;5.20;2.10;;;;;;;;;;4991359;28;20675;-77
2022/06/18 02:19:29;;;;;;;2.70;2.10;;;;;;;;;;4989679;28;20260;-76
2022/06/18 02:21:56;;;;;;;2.30;1.90;;;;;;;;;;4988497;28;20188;-75
2022/06/18 02:24:23;;;;;;;3.30;2.10;;;;;;;;;;4975537;28;20180;-76
2022/06/18 02:26:49;;;;;;;5.97;1.90;;;;;;;;;;4987881;28;20231;-77
2022/06/18 02:29:17;;;;;;;2.40;2.00;;;;;;;;;;5003885;28;20180;-76
2022/06/18 02:31:46;;;;;;;2.30;2.10;;;;;;;;;;4971638;28;20208;-76
2022/06/18 02:34:16;;;;;;;3.53;2.23;;;;;;;;;;5009436;28;20218;-76
2022/06/18 02:36:43;;;;;;;4.60;2.00;;;;;;;;;;4993955;28;20195;-76
2022/06/18 02:39:21;;;;;;;2.13;1.90;;;;;;;;;;4994469;28;20164;-76
2022/06/18 02:41:48;;;;;;;3.37;2.47;;;;;;;;;;4993146;28;20670;-77
2022/06/18 02:44:14;;;;;;;2.50;2.00;;;;;;;;;;4985326;28;20570;-76
2022/06/18 02:46:41;;;;;;;3.80;2.20;;;;;;;;;;4993088;28;20196;-76
2022/06/18 02:49:10;;;;;;;3.77;1.90;;;;;;;;;;4990626;28;20199;-76
2022/06/18 02:51:37;;;;;;;2.17;1.97;;;;;;;;;;5005306;28;20211;-77
2022/06/18 02:54:04;;;;;;;3.23;2.27;;;;;;;;;;4991204;28;20192;-75
2022/06/18 02:56:32;;;;;;;2.77;2.10;;;;;;;;;;5003174;28;20324;-76
2022/06/18 02:58:58;;;;;;;2.57;2.30;;;;;;;;;;4988519;28;20196;-76
2022/06/18 03:01:29;;;;;;;2.73;2.03;;;;;;;;;;4987808;28;20266;-77
2022/06/18 03:03:57;;;;;;;2.13;1.93;;;;;;;;;;5006009;28;20188;-76
2022/06/18 03:06:24;;;;;;;2.73;2.53;;;;;;;;;;5005952;28;20267;-76
2022/06/18 03:08:53;;;;;;;2.50;2.30;;;;;;;;;;4990290;28;20565;-76
2022/06/18 03:14:06;;;;;;;2.70;2.20;;;;;;;;;;4981741;28;20646;-76
2022/06/18 03:16:33;;;;;;;2.43;2.17;;;;;;;;;;4989855;28;20176;-76
2022/06/18 03:19:00;;;;;;;2.20;2.00;;;;;;;;;;5005004;28;20326;-77
2022/06/18 03:21:26;;;;;;;3.10;2.20;;;;;;;;;;5006035;28;20187;-75
2022/06/18 03:23:53;;;;;;;3.60;2.20;;;;;;;;;;4990090;28;20554;-77
2022/06/18 03:26:20;;;;;;;4.43;2.20;;;;;;;;;;5006012;28;20184;-76
2022/06/18 03:28:52;;;;;;;2.47;2.00;;;;;;;;;;4973681;28;20287;-76
2022/06/18 03:31:19;;;;;;;3.87;2.43;;;;;;;;;;4974523;28;20207;-76
2022/06/18 03:33:46;;;;;;;4.10;2.27;;;;;;;;;;4990227;28;20242;-76
2022/06/18 03:36:13;;;;;;;2.77;2.10;;;;;;;;;;4977490;28;20251;-76
2022/06/18 03:38:40;;;;;;;2.80;2.20;;;;;;;;;;5008761;28;20282;-76
2022/06/18 03:41:08;;;;;;;2.83;2.10;;;;;;;;;;5009853;28;20272;-76
2022/06/18 03:43:34;;;;;;;3.43;2.10;;;;;;;;;;5010192;28;20275;-76
2022/06/18 03:46:05;;;;;;;3.57;2.23;;;;;;;;;;5009622;28;20179;-76
2022/06/18 03:48:35;;;;;;;3.47;2.30;;;;;;;;;;4974118;28;20207;-76
2022/06/18 03:51:01;;;;;;;4.67;2.60;;;;;;;;;;5010277;28;20203;-76
2022/06/18 03:53:28;;;;;;;4.13;2.23;;;;;;;;;;4971787;28;20191;-76
2022/06/18 03:55:54;;;;;;;3.40;2.20;;;;;;;;;;4978147;28;20259;-76
2022/06/18 03:58:21;;;;;;;5.17;1.97;;;;;;;;;;5011200;28;20569;-76
2022/06/18 04:00:50;;;;;;;2.43;2.10;;;;;;;;;;4992213;28;20188;-77
2022/06/18 04:03:16;;;;;;;2.77;1.97;;;;;;;;;;4990218;28;20207;-76
2022/06/18 04:05:44;;;;;;;3.60;2.00;;;;;;;;;;4992885;28;20187;-76
2022/06/18 04:08:14;;;;;;;2.87;2.00;;;;;;;;;;4993094;28;20708;-76
2022/06/18 04:10:51;;;;;;;2.30;2.10;;;;;;;;;;5006228;28;20200;-76
2022/06/18 04:13:17;;;;;;;2.83;2.23;;;;;;;;;;5008457;28;20180;-76
2022/06/18 04:16:10;;;;;;;2.53;2.20;;;;;;;;;;4986575;28;20241;-76
2022/06/18 04:18:37;;;;;;;2.40;2.20;;;;;;;;;;4976436;28;20207;-76
2022/06/18 04:21:06;;;;;;;2.27;2.07;;;;;;;;;;4971422;28;20195;-76
2022/06/18 04:23:36;;;;;;;2.20;2.00;;;;;;;;;;4959054;28;20192;-76
2022/06/18 04:26:04;;;;;;;3.33;2.20;;;;;;;;;;5017104;28;20195;-76
2022/06/18 04:28:30;;;;;;;2.33;2.13;;;;;;;;;;4989458;28;20607;-76
2022/06/18 04:31:02;;;;;;;2.30;2.10;;;;;;;;;;5024510;28;20202;-76
2022/06/18 04:33:36;;;;;;;2.57;2.10;;;;;;;;;;4976234;28;20183;-76
2022/06/18 04:36:34;;;;;;;2.13;1.90;;;;;;;;;;4992360;28;20184;-75
2022/06/18 04:39:14;;;;;;;4.07;2.03;;;;;;;;;;5005145;28;20172;-77
2022/06/18 04:41:46;;;;;;;2.63;2.13;;;;;;;;;;5008712;28;20176;-76
2022/06/18 04:44:22;;;;;;;3.97;2.40;;;;;;;;;;4990621;28;20183;-76
2022/06/18 04:47:17;;;;;;;3.20;2.60;;;;;;;;;;4971079;28;20223;-76
2022/06/18 04:49:43;;;;;;;2.60;2.40;;;;;;;;;;5007265;28;20262;-76
2022/06/18 04:52:12;;;;;;;2.73;2.47;;;;;;;;;;4992312;28;20215;-76
2022/06/18 04:54:41;;;;;;;2.30;2.10;;;;;;;;;;5008684;28;20184;-76
2022/06/18 04:57:07;;;;;;;4.37;2.30;;;;;;;;;;4980465;28;20219;-76
2022/06/18 04:59:35;;;;;;;3.40;2.00;;;;;;;;;;5014990;28;20180;-76
2022/06/18 05:02:05;;;;;;;3.37;1.80;;;;;;;;;;4989368;28;20191;-76
2022/06/18 05:04:57;;;;;;;3.93;2.00;;;;;;;;;;4991622;28;20196;-76
2022/06/18 05:07:54;;;;;;;2.80;2.00;;;;;;;;;;4990506;28;20199;-76
2022/06/18 05:10:36;;;;;;;3.80;2.20;;;;;;;;;;5008862;28;20609;-76
2022/06/18 05:13:17;;;;;;;2.20;2.00;;;;;;;;;;5007965;28;20538;-76
2022/06/18 05:15:46;;;;;;;2.47;2.20;;;;;;;;;;4992741;28;20191;-76
2022/06/18 05:18:14;;;;;;;2.70;2.10;;;;;;;;;;4982592;28;20203;-76
2022/06/18 05:20:41;;;;;;;2.80;1.87;;;;;;;;;;4993082;28;20188;-76
2022/06/18 05:23:11;;;;;;;2.20;2.00;;;;;;;;;;5007226;28;20196;-76
2022/06/18 05:25:37;;;;;;;2.10;1.90;;;;;;;;;;5008201;28;20192;-76
2022/06/18 05:28:04;;;;;;;2.57;2.10;;;;;;;;;;5009194;28;20220;-76
2022/06/18 05:30:33;;;;;;;2.20;2.00;;;;;;;;;;4991531;28;20205;-76
2022/06/18 05:33:01;;;;;;;2.47;2.00;;;;;;;;;;5003724;28;20183;-77
2022/06/18 05:35:30;;;;;;;3.33;2.00;;;;;;;;;;4994430;28;20180;-76
2022/06/18 05:37:56;;;;;;;3.23;2.00;;;;;;;;;;4991461;28;20203;-76
2022/06/18 05:40:22;;;;;;;3.47;2.10;;;;;;;;;;4985409;28;20206;-76
2022/06/18 05:42:49;;;;;;;2.30;2.10;;;;;;;;;;5009077;28;20676;-76
2022/06/18 05:45:15;;;;;;;4.73;2.27;;;;;;;;;;4996608;28;20191;-76
2022/06/18 05:47:42;;;;;;;2.57;2.27;;;;;;;;;;4997447;28;20233;-76
2022/06/18 05:50:11;;;;;;;4.60;2.00;;;;;;;;;;4990028;28;20339;-77
2022/06/18 05:52:39;;;;;;;2.50;2.00;;;;;;;;;;4988264;28;20184;-76
2022/06/18 05:55:20;;;;;;;2.10;1.90;;;;;;;;;;4988927;28;20187;-76
2022/06/18 05:57:54;;;;;;;2.60;2.07;;;;;;;;;;4959099;28;20207;-76
2022/06/18 06:00:25;;;;;;;2.83;2.10;;;;;;;;;;5007571;28;20195;-76
2022/06/18 06:02:53;;;;;;;3.70;1.90;;;;;;;;;;4985604;28;20179;-76
2022/06/18 06:05:19;;;;;;;2.90;2.20;;;;;;;;;;5007315;28;20184;-76
2022/06/18 06:07:49;;;;;;;2.10;1.90;;;;;;;;;;5007541;28;20207;-76
2022/06/18 06:13:05;;;;;;;3.67;2.30;;;;;;;;;;4991581;28;20188;-76
2022/06/18 06:15:32;;;;;;;2.10;1.90;;;;;;;;;;4999008;28;20184;-76
2022/06/18 06:17:58;;;;;;;2.23;2.03;;;;;;;;;;4991226;28;20239;-76
2022/06/18 06:20:30;;;;;;;2.60;2.40;;;;;;;;;;4991746;28;20195;-76
2022/06/18 06:22:56;;;;;;;1.93;1.83;;;;;;;;;;4988894;28;20267;-76
2022/06/18 06:25:22;;;;;;;2.30;2.10;;;;;;;;;;4991487;28;20183;-76
2022/06/18 06:27:49;;;;;;;3.50;2.20;;;;;;;;;;4995012;28;20223;-77
2022/06/18 06:30:16;;;;;;;3.57;2.00;;;;;;;;;;5006770;28;20244;-77
2022/06/18 06:32:42;;;;;;;2.23;2.07;;;;;;;;;;4991372;28;20597;-77
2022/06/18 06:35:09;;;;;;;5.00;2.50;;;;;;;;;;4992662;28;20262;-75
2022/06/18 06:37:35;;;;;;;2.60;2.20;;;;;;;;;;4992741;28;20228;-74
2022/06/18 06:40:02;;;;;;;2.73;2.10;;;;;;;;;;4988531;28;20203;-76
2022/06/18 06:42:29;;;;;;;2.87;2.10;;;;;;;;;;4990045;28;20215;-75
2022/06/18 06:44:55;;;;;;;2.60;2.33;;;;;;;;;;4991522;28;20187;-75
2022/06/18 06:47:22;;;;;;;3.53;2.40;;;;;;;;;;5001264;28;20222;-76
2022/06/18 06:49:48;;;;;;;3.90;2.53;;;;;;;;;;4992704;28;20254;-76
2022/06/18 06:52:14;;;;;;;3.93;2.60;;;;;;;;;;4989665;28;20192;-76
2022/06/18 06:54:40;;;;;;;4.23;2.33;;;;;;;;;;4991042;28;20597;-76
2022/06/18 06:57:21;;;;;;;3.03;2.20;;;;;;;;;;5000145;28;20211;-76
2022/06/18 06:59:48;;;;;;;3.23;2.10;;;;;;;;;;4992600;28;20183;-76
2022/06/18 07:02:21;;;;;;;2.87;2.27;;;;;;;;;;4981871;28;20314;-76
2022/06/18 07:04:47;;;;;;;2.40;2.20;;;;;;;;;;4987054;28;20587;-76
2022/06/18 07:07:14;;;;;;;5.17;2.60;;;;;;;;;;5000308;28;20203;-76
2022/06/18 07:09:40;;;;;;;4.47;2.57;;;;;;;;;;4997800;28;20234;-76
2022/06/18 07:12:08;;;;;;;3.77;2.60;;;;;;;;;;4998980;28;20246;-76
2022/06/18 07:14:35;;;;;;;3.30;2.50;;;;;;;;;;4999098;28;20186;-76
2022/06/18 07:17:01;;;;;;;4.30;2.50;;;;;;;;;;4992749;28;20214;-76
2022/06/18 07:19:28;;;;;;;3.40;2.50;;;;;;;;;;4993257;28;20204;-76
2022/06/18 07:21:54;;;;;;;3.20;2.87;;;;;;;;;;5008440;28;20188;-76
2022/06/18 07:24:21;;;;;;;4.23;2.80;;;;;;;;;;4993543;28;20188;-76
2022/06/18 07:26:47;;;;;;;3.50;2.87;;;;;;;;;;4993313;28;20266;-76
2022/06/18 07:29:13;;;;;;;2.83;2.60;;;;;;;;;;4979013;28;20279;-76
2022/06/18 07:31:40;;;;;;;3.83;2.83;;;;;;;;;;5012355;28;20300;-76
2022/06/18 07:34:06;;;;;;;2.70;2.40;;;;;;;;;;4992054;28;20192;-76
2022/06/18 07:36:33;;;;;;;3.00;2.70;;;;;;;;;;4993919;28;20557;-76
2022/06/18 07:39:00;;;;;;;4.07;2.50;;;;;;;;;;4995279;28;20252;-76
2022/06/18 07:41:31;;;;;;;4.60;2.60;;;;;;;;;;4988935;28;20201;-76
2022/06/18 07:43:58;;;;;;;3.57;2.80;;;;;;;;;;4992535;28;20192;-78
2022/06/18 07:46:25;;;;;;;2.87;2.57;;;;;;;;;;4994749;28;20218;-76
2022/06/18 07:48:52;;;;;;;3.77;2.70;;;;;;;;;;4992347;28;20184;-76
2022/06/18 07:51:18;;;;;;;8.10;3.07;;;;;;;;;;4992680;28;20327;-76
2022/06/18 07:53:44;;;;;;;42.40;4.20;;;;;;;;;;5002471;28;20218;-76
2022/06/18 07:56:13;;;;;;;27.00;4.03;;;;;;;;;;4993743;28;20243;-77
2022/06/18 07:58:39;;;;;;;11.10;3.07;;;;;;;;;;4996751;28;20215;-76
2022/06/18 08:01:05;;;;;;;6.90;2.60;;;;;;;;;;4991639;28;20187;-76
2022/06/18 08:03:32;;;;;;;5.70;2.80;;;;;;;;;;4990299;28;20271;-76
2022/06/18 08:05:58;;;;;;;8.17;2.57;;;;;;;;;;4992207;28;20195;-76
2022/06/18 08:08:24;;;;;;;3.70;2.60;;;;;;;;;;4992413;28;20287;-76
2022/06/18 08:10:52;;;;;;;6.17;2.80;;;;;;;;;;4990235;28;20201;-76
2022/06/18 08:13:18;;;;;;;10.03;2.80;;;;;;;;;;4997774;28;20184;-76
2022/06/18 08:15:45;;;;;;;6.43;2.47;;;;;;;;;;4987380;28;20274;-77
2022/06/18 08:18:11;;;;;;;3.90;2.40;;;;;;;;;;4997978;28;20991;-76
2022/06/18 08:20:38;;;;;;;4.27;2.67;;;;;;;;;;5002658;28;20567;-77
2022/06/18 08:23:06;;;;;;;4.93;2.50;;;;;;;;;;4991477;28;20196;-77
2022/06/18 08:25:33;;;;;;;5.13;2.83;;;;;;;;;;4993257;28;20201;-76
2022/06/18 08:28:01;;;;;;;3.73;2.43;;;;;;;;;;4993565;28;20221;-76
2022/06/18 08:30:28;;;;;;;3.00;2.50;;;;;;;;;;5008220;28;20705;-76
2022/06/18 08:32:54;;;;;;;7.90;2.50;;;;;;;;;;4989375;28;20186;-76
2022/06/18 08:35:20;;;;;;;2.60;2.20;;;;;;;;;;4998842;28;20183;-77
2022/06/18 08:37:46;;;;;;;3.10;2.50;;;;;;;;;;5011453;28;20199;-77
2022/06/18 08:40:37;;;;;;;3.73;2.50;;;;;;;;;;4992693;28;20183;-78
2022/06/18 08:43:21;;;;;;;2.50;2.30;;;;;;;;;;4992789;28;20188;-77
2022/06/18 08:45:56;;;;;;;2.90;2.40;;;;;;;;;;4995610;28;20527;-78
2022/06/18 08:48:31;;;;;;;3.47;2.40;;;;;;;;;;4997074;28;20199;-78
2022/06/18 08:51:35;;;;;;;4.30;2.10;;;;;;;;;;4992926;28;20222;-77
2022/06/18 08:54:07;;;;;;;5.33;2.50;;;;;;;;;;4970402;28;20669;-77
2022/06/18 08:56:43;;;;;;;123.87;12.23;;;;;;;;;;4971295;28;20687;-77
2022/06/18 08:59:22;;;;;;;96.77;13.30;;;;;;;;;;4974539;28;20226;-77
2022/06/18 09:01:56;;;;;;;16.27;5.27;;;;;;;;;;4990655;28;20191;-77
2022/06/18 09:04:22;;;;;;;11.10;4.00;;;;;;;;;;4992285;28;20213;-77
2022/06/18 09:07:07;;;;;;;4.53;2.67;;;;;;;;;;4992309;28;20257;-80
2022/06/18 09:09:42;;;;;;;4.00;2.40;;;;;;;;;;4986755;28;20179;-77
2022/06/18 09:12:21;;;;;;;3.13;2.20;;;;;;;;;;5006924;28;20215;-77
2022/06/18 09:14:50;;;;;;;4.33;2.20;;;;;;;;;;5006593;28;20670;-77
2022/06/18 09:17:23;;;;;;;9.07;2.37;;;;;;;;;;4994808;28;20235;-77
2022/06/18 09:20:04;;;;;;;223.83;18.33;;;;;;;;;;4994476;28;20679;-77
2022/06/18 09:22:31;;;;;;;36.80;5.27;;;;;;;;;;4984911;28;20179;-77
2022/06/18 09:25:02;;;;;;;10.50;3.07;;;;;;;;;;4988803;28;20212;-77
2022/06/18 09:27:37;;;;;;;16.00;2.97;;;;;;;;;;4991444;28;20204;-77
2022/06/18 09:30:06;;;;;;;6.57;2.57;;;;;;;;;;4991175;28;20203;-78
2022/06/18 09:32:39;;;;;;;2.50;2.03;;;;;;;;;;4988443;28;20255;-78
2022/06/18 09:35:21;;;;;;;5.33;2.37;;;;;;;;;;4995923;28;20242;-77
2022/06/18 09:38:00;;;;;;;6.00;2.37;;;;;;;;;;5000722;28;20207;-77
2022/06/18 09:40:34;;;;;;;2.10;1.90;;;;;;;;;;4986178;28;20207;-77
2022/06/18 09:43:03;;;;;;;4.43;2.30;;;;;;;;;;4986335;28;20187;-77
2022/06/18 09:45:37;;;;;;;5.10;2.10;;;;;;;;;;4995082;28;20231;-76
2022/06/18 09:48:04;;;;;;;4.30;1.90;;;;;;;;;;4990211;28;20231;-77
2022/06/18 09:50:58;;;;;;;4.77;2.10;;;;;;;;;;4992912;28;20299;-77
2022/06/18 09:53:29;;;;;;;4.63;2.00;;;;;;;;;;4994608;28;20283;-77
2022/06/18 09:56:06;;;;;;;3.77;2.00;;;;;;;;;;4994908;28;20266;-77
2022/06/18 09:58:44;;;;;;;5.53;2.10;;;;;;;;;;4992116;28;20226;-77
2022/06/18 10:01:16;;;;;;;2.90;1.90;;;;;;;;;;4995507;28;20621;-76
2022/06/18 10:09:23;;;;;;;4.10;1.60;;;;;;;;;;4989817;28;20200;-77
2022/06/18 10:11:53;;;;;;;2.07;1.70;;;;;;;;;;4973467;28;20247;-77
2022/06/18 10:14:21;;;;;;;3.83;1.90;;;;;;;;;;4991064;28;20182;-77
2022/06/18 10:16:58;;;;;;;4.07;1.80;;;;;;;;;;4990614;28;20560;-77
2022/06/18 10:19:33;;;;;;;2.30;1.53;;;;;;;;;;5006916;28;20536;-77
2022/06/18 10:22:14;;;;;;;2.57;1.70;;;;;;;;;;4996054;28;20672;-77
2022/06/18 10:24:41;;;;;;;1.70;1.50;;;;;;;;;;4994084;28;20207;-78
2022/06/18 10:27:21;;;;;;;2.73;1.80;;;;;;;;;;4994393;28;21159;-77
2022/06/18 10:29:51;;;;;;;4.17;1.90;;;;;;;;;;4993436;28;20176;-77
2022/06/18 10:32:30;;;;;;;2.17;1.60;;;;;;;;;;4996943;28;20308;-77
2022/06/18 10:35:06;;;;;;;3.70;1.70;;;;;;;;;;4991450;28;20551;-77
2022/06/18 10:37:35;;;;;;;2.50;1.70;;;;;;;;;;4995076;28;20235;-78
2022/06/18 10:40:18;;;;;;;4.90;1.90;;;;;;;;;;4991221;28;20209;-77
2022/06/18 10:42:45;;;;;;;4.30;1.70;;;;;;;;;;4987171;28;21548;-80
2022/06/18 10:45:35;;;;;;;2.00;1.77;;;;;;;;;;4996959;28;20679;-77
2022/06/18 10:48:15;;;;;;;3.07;1.90;;;;;;;;;;4991834;28;20691;-78
2022/06/18 10:50:52;;;;;;;2.80;2.07;;;;;;;;;;4990780;28;20204;-78
2022/06/18 10:53:21;;;;;;;2.37;2.10;;;;;;;;;;4997700;28;20208;-78
2022/06/18 10:56:03;;;;;;;2.13;1.93;;;;;;;;;;5000124;28;20181;-78
2022/06/18 10:58:30;;;;;;;3.80;1.73;;;;;;;;;;4988494;28;20226;-78
2022/06/18 11:01:00;;;;;;;4.60;1.90;;;;;;;;;;4990693;28;20186;-80
2022/06/18 11:03:31;;;;;;;2.30;1.97;;;;;;;;;;4987792;28;20721;-78
2022/06/18 11:06:04;;;;;;;2.53;1.90;;;;;;;;;;4992729;28;20661;-78
2022/06/18 11:08:33;;;;;;;4.23;2.30;;;;;;;;;;4993823;28;20210;-79
2022/06/18 11:11:04;;;;;;;2.63;1.90;;;;;;;;;;4993082;28;20264;-79
2022/06/18 11:13:31;;;;;;;2.60;1.87;;;;;;;;;;4989265;28;20193;-76
2022/06/18 11:16:11;;;;;;;5.37;2.33;;;;;;;;;;4990021;28;20240;-77
2022/06/18 11:18:45;;;;;;;5.07;2.30;;;;;;;;;;5004266;28;20202;-76
2022/06/18 11:21:19;;;;;;;4.00;1.97;;;;;;;;;;4992839;28;20196;-76
2022/06/18 11:23:51;;;;;;;5.70;2.20;;;;;;;;;;5008575;28;20202;-76
2022/06/18 11:26:22;;;;;;;3.37;2.00;;;;;;;;;;5004233;28;20202;-76
2022/06/18 11:28:52;;;;;;;3.47;1.97;;;;;;;;;;4990844;28;20195;-76
2022/06/18 11:31:21;;;;;;;2.63;1.90;;;;;;;;;;4987035;28;20219;-76
2022/06/18 11:33:59;;;;;;;3.50;1.90;;;;;;;;;;4990224;28;20874;-77
2022/06/18 11:36:33;;;;;;;4.57;2.00;;;;;;;;;;4986072;28;20246;-77
2022/06/18 11:39:01;;;;;;;6.33;2.57;;;;;;;;;;4997033;28;20263;-76
2022/06/18 11:41:38;;;;;;;7.93;2.20;;;;;;;;;;5010556;28;20188;-78
2022/06/18 11:44:25;;;;;;;6.83;2.20;;;;;;;;;;4992649;28;20209;-76
2022/06/18 11:47:03;;;;;;;5.67;2.30;;;;;;;;;;4990986;28;20203;-78
2022/06/18 11:49:32;;;;;;;7.23;2.60;;;;;;;;;;4985311;28;20187;-77
2022/06/18 11:52:15;;;;;;;7.70;2.50;;;;;;;;;;4993102;28;20229;-78
2022/06/18 11:54:47;;;;;;;7.83;2.70;;;;;;;;;;4988047;28;20186;-78
2022/06/18 11:57:31;;;;;;;8.93;2.60;;;;;;;;;;4990378;28;20204;-77
2022/06/18 12:00:13;;;;;;;7.10;2.50;;;;;;;;;;4989884;28;20190;-77
2022/06/18 12:02:51;;;;;;;8.07;2.50;;;;;;;;;;5012413;28;20190;-77
2022/06/18 12:05:21;;;;;;;5.13;2.10;;;;;;;;;;5000927;28;20182;-78
2022/06/18 12:07:53;;;;;;;7.80;2.20;;;;;;;;;;4977103;28;20215;-78
2022/06/18 12:10:23;;;;;;;6.00;2.30;;;;;;;;;;4995796;28;20178;-77
2022/06/18 12:12:53;;;;;;;6.30;2.43;;;;;;;;;;4989913;28;20180;-77
2022/06/18 12:15:19;;;;;;;6.30;2.13;;;;;;;;;;4991556;28;20185;-78
2022/06/18 12:18:08;;;;;;;6.80;2.30;;;;;;;;;;4993681;28;20638;-77
2022/06/18 12:20:50;;;;;;;5.13;1.90;;;;;;;;;;4994131;28;20222;-77
2022/06/18 12:23:35;;;;;;;9.40;2.40;;;;;;;;;;4993552;28;20189;-77
2022/06/18 12:26:06;;;;;;;8.80;1.97;;;;;;;;;;4972188;28;20200;-77
2022/06/18 12:28:44;;;;;;;8.27;2.00;;;;;;;;;;5009835;28;20286;-77
2022/06/18 12:31:13;;;;;;;8.47;2.40;;;;;;;;;;5005032;28;20208;-78
2022/06/18 12:33:50;;;;;;;7.27;2.47;;;;;;;;;;4988306;28;20180;-78
2022/06/18 12:36:35;;;;;;;7.17;2.10;;;;;;;;;;4991377;28;20187;-77
2022/06/18 12:39:10;;;;;;;5.87;1.87;;;;;;;;;;4993983;28;20197;-78
2022/06/18 12:41:46;;;;;;;6.47;2.60;;;;;;;;;;4992233;28;20673;-77
2022/06/18 12:44:26;;;;;;;6.88;2.45;;;;;;;;;;4991788;28;20194;-77
2022/06/18 12:46:56;;;;;;;7.28;2.42;;;;;;;;;;5001277;28;20208;-77
2022/06/18 12:49:26;;;;;;;7.53;2.60;;;;;;;;;;4992949;28;20193;-78
2022/06/18 12:51:57;;;;;;;9.95;2.42;;;;;;;;;;4997332;28;20219;-78
2022/06/18 12:54:44;;;;;;;7.45;2.28;;;;;;;;;;4992270;28;20231;-78
2022/06/18 12:57:34;;;;;;;9.98;2.40;;;;;;;;;;4992462;28;20211;-78
2022/06/18 13:00:19;;;;;;;8.68;2.40;;;;;;;;;;5014868;28;20197;-78
2022/06/18 13:03:05;;;;;;;8.35;2.20;;;;;;;;;;4994682;28;20206;-81
2022/06/18 13:05:51;;;;;;;11.90;2.33;;;;;;;;;;4996630;28;20183;-82
2022/06/18 13:08:24;;;;;;;8.25;2.10;;;;;;;;;;5010856;28;20204;-78
2022/06/18 13:10:56;;;;;;;6.13;2.55;;;;;;;;;;4989841;28;20262;-79
2022/06/18 13:13:39;;;;;;;8.45;2.60;;;;;;;;;;4989611;28;20323;-80
2022/06/18 13:16:20;;;;;;;7.22;2.40;;;;;;;;;;5013089;28;20263;-81
2022/06/18 13:18:58;;;;;;;8.63;2.30;;;;;;;;;;4990530;28;20205;-80
2022/06/18 13:21:25;;;;;;;9.80;2.40;;;;;;;;;;4987363;28;20182;-80
2022/06/18 13:29:38;;;;;;;5.68;2.45;;;;;;;;;;4990387;28;20193;-76
2022/06/18 13:32:20;;;;;;;8.52;2.42;;;;;;;;;;5012735;28;20217;-79
2022/06/18 13:35:02;;;;;;;6.38;2.40;;;;;;;;;;4990926;28;20277;-78
2022/06/18 13:37:46;;;;;;;6.45;2.40;;;;;;;;;;4998145;28;20356;-75
2022/06/18 13:40:26;;;;;;;10.45;2.60;;;;;;;;;;4989951;28;20210;-75
2022/06/18 13:43:12;;;;;;;6.75;2.75;;;;;;;;;;4997445;28;20252;-75
2022/06/18 13:45:47;;;;;;;10.88;2.85;;;;;;;;;;5000630;28;20192;-74
2022/06/18 13:48:27;;;;;;;7.90;2.70;;;;;;;;;;5005370;28;20703;-74
2022/06/18 13:50:57;;;;;;;8.45;2.53;;;;;;;;;;4990555;28;20436;-73
2022/06/18 13:53:24;;;;;;;9.48;2.72;;;;;;;;;;4989296;28;20196;-72
2022/06/18 13:55:51;;;;;;;7.15;2.20;;;;;;;;;;4992018;28;20547;-74
2022/06/18 13:58:19;;;;;;;5.35;2.42;;;;;;;;;;4988713;28;20207;-75
2022/06/18 14:00:49;;;;;;;13.43;2.83;;;;;;;;;;4988296;28;20556;-75
2022/06/18 14:03:21;;;;;;;8.15;2.92;;;;;;;;;;4989768;28;20192;-75
2022/06/18 14:06:05;;;;;;;7.10;2.47;;;;;;;;;;4992238;28;20568;-75
2022/06/18 14:08:33;;;;;;;7.72;2.60;;;;;;;;;;4990933;28;20630;-75
2022/06/18 14:11:05;;;;;;;6.15;2.40;;;;;;;;;;4989845;28;20246;-75
2022/06/18 14:13:33;;;;;;;11.07;3.25;;;;;;;;;;4986601;28;20547;-75
2022/06/18 14:16:01;;;;;;;11.20;2.97;;;;;;;;;;4990536;28;20716;-75
2022/06/18 14:18:28;;;;;;;8.68;2.80;;;;;;;;;;5004983;28;20606;-75
2022/06/18 14:20:59;;;;;;;11.88;2.80;;;;;;;;;;4991783;28;20707;-75
2022/06/18 14:23:30;;;;;;;9.95;2.72;;;;;;;;;;4989956;28;20607;-75
2022/06/18 14:25:57;;;;;;;8.15;2.70;;;;;;;;;;4988521;28;20812;-75
2022/06/18 14:28:26;;;;;;;12.13;3.10;;;;;;;;;;4987862;28;20219;-75
2022/06/18 14:31:04;;;;;;;12.38;3.17;;;;;;;;;;4998374;28;20211;-75
2022/06/18 14:33:37;;;;;;;8.27;2.80;;;;;;;;;;4989019;28;20183;-75
2022/06/18 14:36:16;;;;;;;9.20;2.72;;;;;;;;;;4993297;28;20658;-75
2022/06/18 14:38:43;;;;;;;10.07;3.08;;;;;;;;;;4987390;28;20203;-75
2022/06/18 14:44:07;;;;;;;12.27;2.95;;;;;;;;;;4988367;28;20196;-75
2022/06/18 14:46:43;;;;;;;8.02;2.50;;;;;;;;;;4989622;28;20188;-75
2022/06/18 14:49:25;;;;;;;12.95;2.90;;;;;;;;;;4981221;28;20191;-75
2022/06/18 14:51:52;;;;;;;13.10;2.95;;;;;;;;;;4994167;28;20265;-75
2022/06/18 14:54:24;;;;;;;8.02;2.88;;;;;;;;;;4988214;28;20188;-75
2022/06/18 14:57:10;;;;;;;14.40;3.15;;;;;;;;;;4989132;28;20599;-76
2022/06/18 14:59:43;;;;;;;9.05;3.08;;;;;;;;;;4984046;28;20200;-75
2022/06/18 15:02:16;;;;;;;13.10;3.50;;;;;;;;;;4990397;28;20665;-75
2022/06/18 15:04:47;;;;;;;14.52;3.30;;;;;;;;;;4992043;28;20642;-75
2022/06/18 15:07:14;;;;;;;10.50;3.38;;;;;;;;;;4990567;28;20294;-75
2022/06/18 15:09:50;;;;;;;13.82;3.22;;;;;;;;;;4988004;28;20570;-75
2022/06/18 15:12:17;;;;;;;13.50;3.15;;;;;;;;;;4990091;28;20222;-75
2022/06/18 15:14:49;;;;;;;12.30;2.90;;;;;;;;;;4989754;28;20553;-75
2022/06/18 15:19:59;;;;;;;14.25;3.35;;;;;;;;;;4989311;28;20187;-75
2022/06/18 15:27:47;;;;;;;11.65;3.42;;;;;;;;;;4990900;28;20704;-75
2022/06/18 15:30:37;;;;;;;13.95;3.20;;;;;;;;;;4994114;28;20183;-75
2022/06/18 15:33:16;;;;;;;9.95;2.97;;;;;;;;;;4989990;28;20267;-74
2022/06/18 15:35:47;;;;;;;12.32;3.20;;;;;;;;;;4993685;28;20214;-74
2022/06/18 15:38:42;;;;;;;11.98;3.50;;;;;;;;;;4993722;28;20204;-75